Flight Track Log - Related Links

Times and Time Zones

All times are in EDT time to prevent confusion due to time zone crossing. See the SWA1733 flight status page for this flight to view local times or setup timezone preferences in your user account.

Time Position Orientation Groundspeed Altitude Reporting Facility
EDT Latitude Longitude Course Direction KTS MPH feet Rate Location/Type
Fri 12:57:48 PM 33.9500 -118.5000 North 215 247 3,300  Level Southern California TRACON
Fri 12:58:55 PM 33.9375 -118.6022 262° West 274 315 5,900 2,651 Climbing Los Angeles Center
Fri 12:59:57 PM 33.9742 -118.6794 300° West 285 328 9,000 1,500 Climbing Los Angeles Center
Fri 01:00:59 PM 34.0511 -118.7008 347° North 266 306 9,000  Level Los Angeles Center
Fri 01:02:01 PM 34.1044 -118.6575 34° Northeast 260 299 9,000 960 Level Los Angeles Center
Fri 01:03:00 PM 34.2835 -118.6000 North  Level FlightAware Approximate
Fri 01:03:04 PM 34.1731 -118.6264 21° North 263 303 11,000  Level Los Angeles Center
Fri 01:04:06 PM 34.2828 -118.6139 North 334 384 14,500 2,806 Climbing Los Angeles Center
Fri 01:05:08 PM 34.3728 -118.6175 358° North 323 372 16,800 2,758 Climbing Los Angeles Center
Fri 01:06:10 PM 34.4569 -118.6086 North 305 351 20,200 2,226 Climbing Los Angeles Center
Fri 01:07:12 PM 34.5506 -118.6014 North 338 389 21,400 1,839 Climbing Los Angeles Center
Fri 01:08:14 PM 34.6597 -118.6058 358° North 388 447 24,000 1,742 Climbing Los Angeles Center
Fri 01:09:16 PM 34.7681 -118.6311 349° North 396 456 25,000 677 Climbing Los Angeles Center
Fri 01:10:18 PM 34.9000 -118.6586 350° North 400 460 25,400 1,306 Climbing Los Angeles Center
Fri 01:11:20 PM 35.0094 -118.6811 350° North 403 464 27,700 2,032 Climbing Los Angeles Center
Fri 01:12:22 PM 35.1250 -118.7047 351° North 418 481 29,600 2,032 Climbing Los Angeles Center
Fri 01:13:24 PM 35.2419 -118.7275 351° North 425 489 31,900 2,129 Climbing Los Angeles Center
Fri 01:14:26 PM 35.3572 -118.7514 350° North 424 488 34,000 1,016 Climbing Los Angeles Center
Fri 01:15:28 PM 35.4847 -118.7786 350° North 396 456 34,000 48 Level Los Angeles Center
Fri 01:16:31 PM 35.5956 -118.8019 350° North 405 466 34,100 864 Climbing Los Angeles Center
Fri 01:17:33 PM 35.7047 -118.8236 351° North 403 464 35,800 1,694 Climbing Los Angeles Center
Fri 01:18:35 PM 35.8136 -118.8464 350° North 401 461 37,600 1,569 Climbing Los Angeles Center
Fri 01:19:43 PM 35.9389 -118.8731 350° North 389 448 39,200 1,070 Climbing Oakland Center
Fri 01:20:44 PM 36.0444 -118.8953 350° North 386 444 39,900 390 Climbing Oakland Center
Fri 01:21:46 PM 36.1528 -118.9172 351° North 392 451 40,000 49 Climbing Oakland Center
Fri 01:22:47 PM 36.2614 -118.9411 350° North 396 456 40,000  Level Oakland Center
Fri 01:23:49 PM 36.3686 -118.9633 351° North 393 452 40,000  Level Oakland Center
Fri 01:24:50 PM 36.4764 -118.9853 351° North 393 452 40,000 -634 Level Oakland Center
Fri 01:25:52 PM 36.6047 -119.0119 351° North 390 449 38,700 -1,122 Descending Oakland Center
Fri 01:26:53 PM 36.7114 -119.0347 350° North 389 448 37,700 -836 Descending Oakland Center
Fri 01:27:54 PM 36.8161 -119.0578 350° North 385 443 37,000 -732 Descending Oakland Center
Fri 01:28:56 PM 36.9200 -119.0797 350° North 381 438 36,200 -878 Descending Oakland Center
Fri 01:29:57 PM 37.0242 -119.1031 350° North 391 450 35,200 -927 Descending Oakland Center
Fri 01:30:59 PM 37.1292 -119.1272 350° North 388 447 34,300 -927 Descending Oakland Center
Fri 01:32:00 PM 37.2375 -119.1503 350° North 394 453 33,300 -976 Descending Oakland Center
Fri 01:33:02 PM 37.3428 -119.1731 350° North 387 445 32,300 -1,073 Descending Oakland Center
Fri 01:34:03 PM 37.4658 -119.1986 351° North 375 432 31,100 -1,082 Descending Oakland Center
Fri 01:35:04 PM 37.5689 -119.2242 349° North 382 440 30,100 -829 Descending Oakland Center
Fri 01:36:06 PM 37.6719 -119.2392 353° North 370 426 29,400 -780 Descending Oakland Center
Fri 01:37:07 PM 37.7792 -119.2628 350° North 388 447 28,500 -927 Descending Oakland Center
Fri 01:38:09 PM 37.8825 -119.2878 349° North 381 438 27,500 -976 Descending Oakland Center
Fri 01:39:10 PM 37.9881 -119.3106 350° North 383 441 26,500 -976 Descending Oakland Center
Fri 01:40:12 PM 38.0956 -119.3336 350° North 389 448 25,500 -1,024 Descending Oakland Center
Fri 01:41:13 PM 38.2142 -119.3583 351° North 385 443 24,400 -1,073 Descending Oakland Center
Fri 01:42:15 PM 38.3158 -119.3808 350° North 375 432 23,300 -1,016 Descending Oakland Center
Fri 01:43:17 PM 38.4161 -119.4039 350° North 367 422 22,300 -1,268 Descending Oakland Center
Fri 01:44:18 PM 38.5164 -119.4261 350° North 365 420 20,700 -1,869 Descending Oakland Center
Fri 01:45:19 PM 38.6150 -119.4481 350° North 360 414 18,500 -2,098 Descending Oakland Center
Fri 01:46:21 PM 38.7122 -119.4703 350° North 355 409 16,400 -1,268 Descending Oakland Center
Fri 01:47:22 PM 38.8072 -119.4914 350° North 349 402 15,900 -341 Descending Oakland Center
Fri 01:48:24 PM 38.8986 -119.5133 349° North 338 389 15,700 -585 Descending Oakland Center
Fri 01:49:25 PM 38.9897 -119.5308 352° North 332 382 14,700 -1,951 Descending Oakland Center
Fri 01:50:27 PM 39.0975 -119.5350 358° North 325 374 11,700 -1,805 Descending Oakland Center
Fri 01:51:28 PM 39.1867 -119.5589 348° North 324 373 11,000 -439 Descending Oakland Center
Fri 01:52:30 PM 39.2717 -119.5831 348° North 316 364 10,800 -439 Descending Oakland Center
Fri 01:53:31 PM 39.3575 -119.6069 348° North 315 362 10,100 -393 Descending Oakland Center
Fri 01:54:32 PM 39.4447 -119.6325 347° North 316 364 10,000 -264 Descending Oakland Center
Fri 01:55:02 PM 39.4833 -119.6500 341° North 287 330 9,700 -267 Descending Northern Cal TRACON
Fri 01:56:02 PM 39.5500 -119.6667 349° North 238 274 9,600 -600 Descending Northern Cal TRACON
Fri 01:57:02 PM 39.6167 -119.6667 360° North 184 212 8,500 -1,137 Descending Northern Cal TRACON
Fri 01:57:37 PM 39.6294 -119.6858 311° West 217 250 7,800 -1,150 Descending Oakland Center
Fri 01:59:02 PM 39.6000 -119.7667 245° Southwest 158 182 6,200 -993 Descending Northern Cal TRACON
Fri 02:00:08 PM 39.5500 -119.7667 180° South 152 175 5,300 -818 Descending Northern Cal TRACON
Fri 02:02:00 PM 39.4991 -119.7681 237° Southwest  Level Estimated
Fri 02:09:00 PM 39.4991 -119.7681 237° Southwest  Level Estimated

Login

Don't have an account? Register now (free) for customized features, flight alerts, and more!